sensor_id;sensor_type;location;lat;lon;timestamp;P1;durP1;ratioP1;P2;durP2;ratioP2
6840;SDS011;3458;53.678;14.080;2023-09-08T00:00:40;8.33;;;4.33;;
6840;SDS011;3458;53.678;14.080;2023-09-08T00:03:06;4.53;;;3.63;;
6840;SDS011;3458;53.678;14.080;2023-09-08T00:05:31;5.40;;;3.70;;
6840;SDS011;3458;53.678;14.080;2023-09-08T00:07:57;4.90;;;3.80;;
6840;SDS011;3458;53.678;14.080;2023-09-08T00:10:22;4.30;;;3.90;;
6840;SDS011;3458;53.678;14.080;2023-09-08T00:12:48;3.90;;;3.47;;
6840;SDS011;3458;53.678;14.080;2023-09-08T00:15:13;4.97;;;4.13;;
6840;SDS011;3458;53.678;14.080;2023-09-08T00:17:39;4.80;;;3.93;;
6840;SDS011;3458;53.678;14.080;2023-09-08T00:20:05;4.83;;;4.33;;
6840;SDS011;3458;53.678;14.080;2023-09-08T00:22:34;4.50;;;3.80;;
6840;SDS011;3458;53.678;14.080;2023-09-08T00:25:00;11.03;;;4.20;;
6840;SDS011;3458;53.678;14.080;2023-09-08T00:27:25;5.47;;;4.07;;
6840;SDS011;3458;53.678;14.080;2023-09-08T00:29:51;4.30;;;3.77;;
6840;SDS011;3458;53.678;14.080;2023-09-08T00:32:16;5.40;;;4.70;;
6840;SDS011;3458;53.678;14.080;2023-09-08T00:34:42;4.27;;;3.87;;
6840;SDS011;3458;53.678;14.080;2023-09-08T00:37:07;4.93;;;4.43;;
6840;SDS011;3458;53.678;14.080;2023-09-08T00:39:35;4.10;;;3.70;;
6840;SDS011;3458;53.678;14.080;2023-09-08T00:42:01;10.00;;;4.00;;
6840;SDS011;3458;53.678;14.080;2023-09-08T00:44:26;5.80;;;4.70;;
6840;SDS011;3458;53.678;14.080;2023-09-08T00:46:52;5.90;;;5.00;;
6840;SDS011;3458;53.678;14.080;2023-09-08T00:49:17;5.23;;;4.53;;
6840;SDS011;3458;53.678;14.080;2023-09-08T00:51:43;5.80;;;5.20;;
6840;SDS011;3458;53.678;14.080;2023-09-08T00:54:09;6.53;;;5.43;;
6840;SDS011;3458;53.678;14.080;2023-09-08T00:56:36;7.33;;;4.90;;
6840;SDS011;3458;53.678;14.080;2023-09-08T00:59:03;5.77;;;4.97;;
6840;SDS011;3458;53.678;14.080;2023-09-08T01:01:29;10.70;;;5.40;;
6840;SDS011;3458;53.678;14.080;2023-09-08T01:03:56;6.27;;;4.70;;
6840;SDS011;3458;53.678;14.080;2023-09-08T01:06:21;5.60;;;5.00;;
6840;SDS011;3458;53.678;14.080;2023-09-08T01:08:48;5.70;;;5.00;;
6840;SDS011;3458;53.678;14.080;2023-09-08T01:11:15;5.77;;;5.10;;
6840;SDS011;3458;53.678;14.080;2023-09-08T01:13:42;6.67;;;5.60;;
6840;SDS011;3458;53.678;14.080;2023-09-08T01:16:08;7.03;;;6.00;;
6840;SDS011;3458;53.678;14.080;2023-09-08T01:18:33;9.87;;;6.03;;
6840;SDS011;3458;53.678;14.080;2023-09-08T01:21:03;10.00;;;5.80;;
6840;SDS011;3458;53.678;14.080;2023-09-08T01:23:54;6.67;;;5.20;;
6840;SDS011;3458;53.678;14.080;2023-09-08T01:26:42;7.50;;;5.20;;
6840;SDS011;3458;53.678;14.080;2023-09-08T01:29:11;5.90;;;4.73;;
6840;SDS011;3458;53.678;14.080;2023-09-08T01:31:40;5.20;;;4.70;;
6840;SDS011;3458;53.678;14.080;2023-09-08T01:34:07;5.60;;;4.90;;
6840;SDS011;3458;53.678;14.080;2023-09-08T01:36:34;8.47;;;4.30;;
6840;SDS011;3458;53.678;14.080;2023-09-08T01:39:00;7.50;;;4.47;;
6840;SDS011;3458;53.678;14.080;2023-09-08T01:41:26;5.07;;;3.50;;
6840;SDS011;3458;53.678;14.080;2023-09-08T01:43:52;6.00;;;3.50;;
6840;SDS011;3458;53.678;14.080;2023-09-08T01:46:17;7.93;;;3.60;;
6840;SDS011;3458;53.678;14.080;2023-09-08T01:48:43;5.17;;;4.13;;
6840;SDS011;3458;53.678;14.080;2023-09-08T01:51:08;4.63;;;4.20;;
6840;SDS011;3458;53.678;14.080;2023-09-08T01:53:34;6.63;;;4.30;;
6840;SDS011;3458;53.678;14.080;2023-09-08T01:55:59;5.50;;;4.20;;
6840;SDS011;3458;53.678;14.080;2023-09-08T01:58:25;8.60;;;5.40;;
6840;SDS011;3458;53.678;14.080;2023-09-08T02:00:51;6.00;;;4.83;;
6840;SDS011;3458;53.678;14.080;2023-09-08T02:03:17;8.60;;;4.80;;
6840;SDS011;3458;53.678;14.080;2023-09-08T02:05:42;8.23;;;5.03;;
6840;SDS011;3458;53.678;14.080;2023-09-08T02:08:09;9.53;;;5.63;;
6840;SDS011;3458;53.678;14.080;2023-09-08T02:10:34;8.80;;;5.10;;
6840;SDS011;3458;53.678;14.080;2023-09-08T02:13:00;6.93;;;5.50;;
6840;SDS011;3458;53.678;14.080;2023-09-08T02:15:25;8.33;;;6.07;;
6840;SDS011;3458;53.678;14.080;2023-09-08T02:17:54;6.50;;;5.30;;
6840;SDS011;3458;53.678;14.080;2023-09-08T02:20:21;6.47;;;5.70;;
6840;SDS011;3458;53.678;14.080;2023-09-08T02:22:46;9.57;;;6.00;;
6840;SDS011;3458;53.678;14.080;2023-09-08T02:25:15;7.07;;;4.87;;
6840;SDS011;3458;53.678;14.080;2023-09-08T02:27:40;5.80;;;5.20;;
6840;SDS011;3458;53.678;14.080;2023-09-08T02:30:06;11.87;;;5.40;;
6840;SDS011;3458;53.678;14.080;2023-09-08T02:32:32;6.43;;;5.33;;
6840;SDS011;3458;53.678;14.080;2023-09-08T02:34:57;4.47;;;4.07;;
6840;SDS011;3458;53.678;14.080;2023-09-08T02:37:22;6.23;;;4.90;;
6840;SDS011;3458;53.678;14.080;2023-09-08T02:39:48;4.80;;;4.30;;
6840;SDS011;3458;53.678;14.080;2023-09-08T02:42:13;7.60;;;4.13;;
6840;SDS011;3458;53.678;14.080;2023-09-08T02:44:39;4.90;;;4.00;;
6840;SDS011;3458;53.678;14.080;2023-09-08T02:47:04;5.37;;;4.80;;
6840;SDS011;3458;53.678;14.080;2023-09-08T02:49:31;4.70;;;4.20;;
6840;SDS011;3458;53.678;14.080;2023-09-08T02:51:57;7.53;;;4.50;;
6840;SDS011;3458;53.678;14.080;2023-09-08T02:54:22;6.37;;;4.93;;
6840;SDS011;3458;53.678;14.080;2023-09-08T02:56:48;10.00;;;5.33;;
6840;SDS011;3458;53.678;14.080;2023-09-08T02:59:13;7.53;;;5.47;;
6840;SDS011;3458;53.678;14.080;2023-09-08T03:01:39;5.17;;;4.67;;
6840;SDS011;3458;53.678;14.080;2023-09-08T03:04:05;5.00;;;4.10;;
6840;SDS011;3458;53.678;14.080;2023-09-08T03:06:30;7.90;;;5.20;;
6840;SDS011;3458;53.678;14.080;2023-09-08T03:08:56;5.77;;;4.87;;
6840;SDS011;3458;53.678;14.080;2023-09-08T03:11:23;5.57;;;4.97;;
6840;SDS011;3458;53.678;14.080;2023-09-08T03:13:49;7.17;;;5.00;;
6840;SDS011;3458;53.678;14.080;2023-09-08T03:16:14;6.07;;;4.90;;
6840;SDS011;3458;53.678;14.080;2023-09-08T03:18:41;5.77;;;4.87;;
6840;SDS011;3458;53.678;14.080;2023-09-08T03:21:06;5.43;;;4.80;;
6840;SDS011;3458;53.678;14.080;2023-09-08T03:23:39;5.50;;;4.60;;
6840;SDS011;3458;53.678;14.080;2023-09-08T03:26:06;4.83;;;4.33;;
6840;SDS011;3458;53.678;14.080;2023-09-08T03:28:32;6.63;;;4.13;;
6840;SDS011;3458;53.678;14.080;2023-09-08T03:30:59;7.80;;;5.10;;
6840;SDS011;3458;53.678;14.080;2023-09-08T03:33:25;5.90;;;5.00;;
6840;SDS011;3458;53.678;14.080;2023-09-08T03:35:51;7.43;;;5.13;;
6840;SDS011;3458;53.678;14.080;2023-09-08T03:38:16;5.90;;;4.97;;
6840;SDS011;3458;53.678;14.080;2023-09-08T03:40:42;5.73;;;5.00;;
6840;SDS011;3458;53.678;14.080;2023-09-08T03:43:07;5.67;;;4.80;;
6840;SDS011;3458;53.678;14.080;2023-09-08T03:45:33;12.00;;;5.10;;
6840;SDS011;3458;53.678;14.080;2023-09-08T03:47:58;5.07;;;4.13;;
6840;SDS011;3458;53.678;14.080;2023-09-08T03:50:24;4.97;;;4.30;;
6840;SDS011;3458;53.678;14.080;2023-09-08T03:52:49;8.10;;;4.87;;
6840;SDS011;3458;53.678;14.080;2023-09-08T03:55:18;5.70;;;5.03;;
6840;SDS011;3458;53.678;14.080;2023-09-08T03:57:44;4.73;;;4.23;;
6840;SDS011;3458;53.678;14.080;2023-09-08T04:00:10;10.23;;;5.57;;
6840;SDS011;3458;53.678;14.080;2023-09-08T04:02:36;7.53;;;5.20;;
6840;SDS011;3458;53.678;14.080;2023-09-08T04:05:02;9.43;;;6.07;;
6840;SDS011;3458;53.678;14.080;2023-09-08T04:07:27;9.43;;;5.47;;
6840;SDS011;3458;53.678;14.080;2023-09-08T04:09:53;15.83;;;5.67;;
6840;SDS011;3458;53.678;14.080;2023-09-08T04:12:18;9.17;;;5.87;;
6840;SDS011;3458;53.678;14.080;2023-09-08T04:14:44;12.20;;;7.40;;
6840;SDS011;3458;53.678;14.080;2023-09-08T04:17:09;15.20;;;9.50;;
6840;SDS011;3458;53.678;14.080;2023-09-08T04:19:35;15.80;;;7.63;;
6840;SDS011;3458;53.678;14.080;2023-09-08T04:22:01;9.30;;;6.20;;
6840;SDS011;3458;53.678;14.080;2023-09-08T04:24:26;15.13;;;7.47;;
6840;SDS011;3458;53.678;14.080;2023-09-08T04:26:52;9.23;;;6.43;;
6840;SDS011;3458;53.678;14.080;2023-09-08T04:29:17;8.73;;;5.37;;
6840;SDS011;3458;53.678;14.080;2023-09-08T04:31:43;5.97;;;4.40;;
6840;SDS011;3458;53.678;14.080;2023-09-08T04:34:08;9.53;;;6.30;;
6840;SDS011;3458;53.678;14.080;2023-09-08T04:36:34;11.23;;;6.07;;
6840;SDS011;3458;53.678;14.080;2023-09-08T04:38:59;6.20;;;5.13;;
6840;SDS011;3458;53.678;14.080;2023-09-08T04:41:25;8.57;;;4.60;;
6840;SDS011;3458;53.678;14.080;2023-09-08T04:43:50;6.07;;;4.27;;
6840;SDS011;3458;53.678;14.080;2023-09-08T04:46:16;9.13;;;4.13;;
6840;SDS011;3458;53.678;14.080;2023-09-08T04:48:41;5.63;;;4.70;;
6840;SDS011;3458;53.678;14.080;2023-09-08T04:51:07;6.40;;;5.00;;
6840;SDS011;3458;53.678;14.080;2023-09-08T04:53:32;7.27;;;5.30;;
6840;SDS011;3458;53.678;14.080;2023-09-08T04:55:58;10.23;;;4.30;;
6840;SDS011;3458;53.678;14.080;2023-09-08T04:58:24;4.20;;;3.80;;
6840;SDS011;3458;53.678;14.080;2023-09-08T05:00:50;7.40;;;4.30;;
6840;SDS011;3458;53.678;14.080;2023-09-08T05:03:16;4.50;;;3.97;;
6840;SDS011;3458;53.678;14.080;2023-09-08T05:05:41;7.03;;;5.50;;
6840;SDS011;3458;53.678;14.080;2023-09-08T05:08:07;6.90;;;5.47;;
6840;SDS011;3458;53.678;14.080;2023-09-08T05:10:32;5.20;;;4.37;;
6840;SDS011;3458;53.678;14.080;2023-09-08T05:12:58;5.37;;;3.70;;
6840;SDS011;3458;53.678;14.080;2023-09-08T05:15:23;7.77;;;3.80;;
6840;SDS011;3458;53.678;14.080;2023-09-08T05:17:50;8.23;;;4.40;;
6840;SDS011;3458;53.678;14.080;2023-09-08T05:20:15;6.67;;;4.77;;
6840;SDS011;3458;53.678;14.080;2023-09-08T05:22:41;6.50;;;5.00;;
6840;SDS011;3458;53.678;14.080;2023-09-08T05:25:06;5.10;;;4.07;;
6840;SDS011;3458;53.678;14.080;2023-09-08T05:27:32;4.43;;;3.80;;
6840;SDS011;3458;53.678;14.080;2023-09-08T05:29:58;4.53;;;4.00;;
6840;SDS011;3458;53.678;14.080;2023-09-08T05:32:23;6.57;;;4.47;;
6840;SDS011;3458;53.678;14.080;2023-09-08T05:34:49;9.30;;;4.90;;
6840;SDS011;3458;53.678;14.080;2023-09-08T05:37:15;6.20;;;4.57;;
6840;SDS011;3458;53.678;14.080;2023-09-08T05:39:41;4.50;;;4.10;;
6840;SDS011;3458;53.678;14.080;2023-09-08T05:42:06;4.77;;;4.27;;
6840;SDS011;3458;53.678;14.080;2023-09-08T05:44:32;7.67;;;5.40;;
6840;SDS011;3458;53.678;14.080;2023-09-08T05:46:57;7.10;;;5.10;;
6840;SDS011;3458;53.678;14.080;2023-09-08T05:49:23;6.30;;;4.90;;
6840;SDS011;3458;53.678;14.080;2023-09-08T05:51:48;6.20;;;4.97;;
6840;SDS011;3458;53.678;14.080;2023-09-08T05:54:14;8.00;;;6.20;;
6840;SDS011;3458;53.678;14.080;2023-09-08T05:56:40;6.87;;;6.03;;
6840;SDS011;3458;53.678;14.080;2023-09-08T05:59:05;12.67;;;6.93;;
6840;SDS011;3458;53.678;14.080;2023-09-08T06:01:31;7.20;;;6.20;;
6840;SDS011;3458;53.678;14.080;2023-09-08T06:03:57;8.40;;;6.53;;
6840;SDS011;3458;53.678;14.080;2023-09-08T06:06:23;11.53;;;6.40;;
6840;SDS011;3458;53.678;14.080;2023-09-08T06:08:50;8.00;;;6.40;;
6840;SDS011;3458;53.678;14.080;2023-09-08T06:11:15;9.67;;;6.47;;
6840;SDS011;3458;53.678;14.080;2023-09-08T06:13:41;10.70;;;6.53;;
6840;SDS011;3458;53.678;14.080;2023-09-08T06:16:07;9.27;;;6.87;;
6840;SDS011;3458;53.678;14.080;2023-09-08T06:18:33;7.73;;;6.93;;
6840;SDS011;3458;53.678;14.080;2023-09-08T06:21:04;9.00;;;6.40;;
6840;SDS011;3458;53.678;14.080;2023-09-08T06:23:31;16.67;;;6.93;;
6840;SDS011;3458;53.678;14.080;2023-09-08T06:25:56;7.90;;;6.83;;
6840;SDS011;3458;53.678;14.080;2023-09-08T06:28:25;9.10;;;7.77;;
6840;SDS011;3458;53.678;14.080;2023-09-08T06:30:51;7.97;;;6.90;;
6840;SDS011;3458;53.678;14.080;2023-09-08T06:33:17;15.27;;;7.90;;
6840;SDS011;3458;53.678;14.080;2023-09-08T06:35:42;10.50;;;8.40;;
6840;SDS011;3458;53.678;14.080;2023-09-08T06:38:08;12.90;;;8.63;;
6840;SDS011;3458;53.678;14.080;2023-09-08T06:40:33;10.73;;;8.20;;
6840;SDS011;3458;53.678;14.080;2023-09-08T06:42:59;16.30;;;8.70;;
6840;SDS011;3458;53.678;14.080;2023-09-08T06:45:24;14.50;;;9.00;;
6840;SDS011;3458;53.678;14.080;2023-09-08T06:47:50;11.77;;;8.83;;
6840;SDS011;3458;53.678;14.080;2023-09-08T06:50:19;15.40;;;10.17;;
6840;SDS011;3458;53.678;14.080;2023-09-08T06:52:50;11.00;;;9.03;;
6840;SDS011;3458;53.678;14.080;2023-09-08T06:55:16;14.73;;;9.77;;
6840;SDS011;3458;53.678;14.080;2023-09-08T06:57:42;11.53;;;8.50;;
6840;SDS011;3458;53.678;14.080;2023-09-08T07:00:08;12.00;;;8.97;;
6840;SDS011;3458;53.678;14.080;2023-09-08T07:02:36;15.03;;;9.17;;
6840;SDS011;3458;53.678;14.080;2023-09-08T07:05:02;12.70;;;9.50;;
6840;SDS011;3458;53.678;14.080;2023-09-08T07:07:32;19.03;;;8.17;;
6840;SDS011;3458;53.678;14.080;2023-09-08T07:09:59;11.00;;;8.23;;
6840;SDS011;3458;53.678;14.080;2023-09-08T07:12:24;16.00;;;9.97;;
6840;SDS011;3458;53.678;14.080;2023-09-08T07:14:50;14.47;;;9.53;;
6840;SDS011;3458;53.678;14.080;2023-09-08T07:17:15;12.50;;;9.13;;
6840;SDS011;3458;53.678;14.080;2023-09-08T07:19:40;13.07;;;7.87;;
6840;SDS011;3458;53.678;14.080;2023-09-08T07:22:06;14.47;;;8.40;;
6840;SDS011;3458;53.678;14.080;2023-09-08T07:24:31;11.13;;;8.20;;
6840;SDS011;3458;53.678;14.080;2023-09-08T07:26:57;11.90;;;7.70;;
6840;SDS011;3458;53.678;14.080;2023-09-08T07:29:22;10.53;;;7.90;;
6840;SDS011;3458;53.678;14.080;2023-09-08T07:31:48;10.03;;;8.07;;
6840;SDS011;3458;53.678;14.080;2023-09-08T07:34:13;10.50;;;7.23;;
6840;SDS011;3458;53.678;14.080;2023-09-08T07:36:39;10.00;;;7.40;;
6840;SDS011;3458;53.678;14.080;2023-09-08T07:39:05;11.47;;;8.30;;
6840;SDS011;3458;53.678;14.080;2023-09-08T07:41:30;16.60;;;9.03;;
6840;SDS011;3458;53.678;14.080;2023-09-08T07:43:56;11.87;;;8.10;;
6840;SDS011;3458;53.678;14.080;2023-09-08T07:46:21;11.70;;;7.80;;
6840;SDS011;3458;53.678;14.080;2023-09-08T07:48:47;9.80;;;7.10;;
6840;SDS011;3458;53.678;14.080;2023-09-08T07:51:12;9.27;;;7.10;;
6840;SDS011;3458;53.678;14.080;2023-09-08T07:53:38;10.40;;;7.23;;
6840;SDS011;3458;53.678;14.080;2023-09-08T07:56:04;14.60;;;7.50;;
6840;SDS011;3458;53.678;14.080;2023-09-08T07:58:29;8.07;;;6.40;;
6840;SDS011;3458;53.678;14.080;2023-09-08T08:00:55;9.77;;;7.00;;
6840;SDS011;3458;53.678;14.080;2023-09-08T08:03:20;8.43;;;6.90;;
6840;SDS011;3458;53.678;14.080;2023-09-08T08:05:46;17.30;;;7.57;;
6840;SDS011;3458;53.678;14.080;2023-09-08T08:08:11;11.73;;;7.03;;
6840;SDS011;3458;53.678;14.080;2023-09-08T08:10:37;10.93;;;6.00;;
6840;SDS011;3458;53.678;14.080;2023-09-08T08:13:03;12.37;;;6.27;;
6840;SDS011;3458;53.678;14.080;2023-09-08T08:15:35;14.03;;;6.57;;
6840;SDS011;3458;53.678;14.080;2023-09-08T08:18:03;8.93;;;6.00;;
6840;SDS011;3458;53.678;14.080;2023-09-08T08:20:32;10.00;;;6.77;;
6840;SDS011;3458;53.678;14.080;2023-09-08T08:23:00;9.07;;;6.83;;
6840;SDS011;3458;53.678;14.080;2023-09-08T08:25:27;10.10;;;5.93;;
6840;SDS011;3458;53.678;14.080;2023-09-08T08:27:52;9.63;;;6.00;;
6840;SDS011;3458;53.678;14.080;2023-09-08T08:30:18;11.37;;;6.23;;
6840;SDS011;3458;53.678;14.080;2023-09-08T08:32:44;13.43;;;6.27;;
6840;SDS011;3458;53.678;14.080;2023-09-08T08:35:10;8.30;;;6.23;;
6840;SDS011;3458;53.678;14.080;2023-09-08T08:37:36;9.53;;;5.60;;
6840;SDS011;3458;53.678;14.080;2023-09-08T08:40:04;10.77;;;6.13;;
6840;SDS011;3458;53.678;14.080;2023-09-08T08:42:32;8.90;;;5.93;;
6840;SDS011;3458;53.678;14.080;2023-09-08T08:44:58;13.43;;;5.97;;
6840;SDS011;3458;53.678;14.080;2023-09-08T08:47:24;9.77;;;6.50;;
6840;SDS011;3458;53.678;14.080;2023-09-08T08:49:52;7.10;;;5.80;;
6840;SDS011;3458;53.678;14.080;2023-09-08T08:52:20;9.70;;;5.83;;
6840;SDS011;3458;53.678;14.080;2023-09-08T08:54:46;6.10;;;4.87;;
6840;SDS011;3458;53.678;14.080;2023-09-08T08:57:11;6.60;;;5.63;;
6840;SDS011;3458;53.678;14.080;2023-09-08T08:59:38;10.40;;;5.23;;
6840;SDS011;3458;53.678;14.080;2023-09-08T09:02:06;10.37;;;5.77;;
6840;SDS011;3458;53.678;14.080;2023-09-08T09:04:33;9.73;;;6.60;;
6840;SDS011;3458;53.678;14.080;2023-09-08T09:07:02;6.40;;;5.17;;
6840;SDS011;3458;53.678;14.080;2023-09-08T09:09:29;13.83;;;6.60;;
6840;SDS011;3458;53.678;14.080;2023-09-08T09:11:54;11.13;;;6.43;;
6840;SDS011;3458;53.678;14.080;2023-09-08T09:14:20;10.07;;;5.90;;
6840;SDS011;3458;53.678;14.080;2023-09-08T09:16:48;7.70;;;5.70;;
6840;SDS011;3458;53.678;14.080;2023-09-08T09:19:17;9.83;;;6.17;;
6840;SDS011;3458;53.678;14.080;2023-09-08T09:21:52;9.03;;;5.70;;
6840;SDS011;3458;53.678;14.080;2023-09-08T09:24:29;12.23;;;6.50;;
6840;SDS011;3458;53.678;14.080;2023-09-08T09:26:57;9.37;;;6.13;;
6840;SDS011;3458;53.678;14.080;2023-09-08T09:29:23;9.00;;;5.80;;
6840;SDS011;3458;53.678;14.080;2023-09-08T09:31:53;8.00;;;5.97;;
6840;SDS011;3458;53.678;14.080;2023-09-08T09:34:20;11.77;;;6.80;;
6840;SDS011;3458;53.678;14.080;2023-09-08T09:36:47;9.80;;;6.40;;
6840;SDS011;3458;53.678;14.080;2023-09-08T09:39:15;7.60;;;5.97;;
6840;SDS011;3458;53.678;14.080;2023-09-08T09:41:42;7.30;;;4.50;;
6840;SDS011;3458;53.678;14.080;2023-09-08T09:44:08;9.47;;;5.90;;
6840;SDS011;3458;53.678;14.080;2023-09-08T09:46:34;6.93;;;5.00;;
6840;SDS011;3458;53.678;14.080;2023-09-08T09:48:59;6.87;;;5.17;;
6840;SDS011;3458;53.678;14.080;2023-09-08T09:51:25;6.33;;;4.90;;
6840;SDS011;3458;53.678;14.080;2023-09-08T09:53:50;7.40;;;4.90;;
6840;SDS011;3458;53.678;14.080;2023-09-08T09:56:19;8.17;;;5.30;;
6840;SDS011;3458;53.678;14.080;2023-09-08T09:58:47;7.23;;;5.13;;
6840;SDS011;3458;53.678;14.080;2023-09-08T10:01:13;12.77;;;4.60;;
6840;SDS011;3458;53.678;14.080;2023-09-08T10:03:40;16.87;;;5.40;;
6840;SDS011;3458;53.678;14.080;2023-09-08T10:06:05;8.67;;;5.37;;
6840;SDS011;3458;53.678;14.080;2023-09-08T10:08:32;9.60;;;5.40;;
6840;SDS011;3458;53.678;14.080;2023-09-08T10:11:02;7.50;;;4.73;;
6840;SDS011;3458;53.678;14.080;2023-09-08T10:13:31;9.60;;;5.63;;
6840;SDS011;3458;53.678;14.080;2023-09-08T10:16:03;13.60;;;5.00;;
6840;SDS011;3458;53.678;14.080;2023-09-08T10:18:33;5.10;;;4.27;;
6840;SDS011;3458;53.678;14.080;2023-09-08T10:21:00;6.27;;;4.10;;
6840;SDS011;3458;53.678;14.080;2023-09-08T10:23:33;15.53;;;5.10;;
6840;SDS011;3458;53.678;14.080;2023-09-08T10:26:06;8.03;;;3.90;;
6840;SDS011;3458;53.678;14.080;2023-09-08T10:28:35;4.47;;;4.07;;
6840;SDS011;3458;53.678;14.080;2023-09-08T10:31:02;7.70;;;4.03;;
6840;SDS011;3458;53.678;14.080;2023-09-08T10:33:28;6.80;;;5.03;;
6840;SDS011;3458;53.678;14.080;2023-09-08T10:35:55;7.83;;;4.30;;
6840;SDS011;3458;53.678;14.080;2023-09-08T10:38:23;7.87;;;4.43;;
6840;SDS011;3458;53.678;14.080;2023-09-08T10:40:53;4.40;;;4.00;;
6840;SDS011;3458;53.678;14.080;2023-09-08T10:43:38;10.23;;;6.47;;
6840;SDS011;3458;53.678;14.080;2023-09-08T10:46:10;7.00;;;4.80;;
6840;SDS011;3458;53.678;14.080;2023-09-08T10:48:46;4.60;;;3.23;;
6840;SDS011;3458;53.678;14.080;2023-09-08T10:51:15;7.20;;;4.37;;
6840;SDS011;3458;53.678;14.080;2023-09-08T10:53:42;16.30;;;4.23;;
6840;SDS011;3458;53.678;14.080;2023-09-08T10:56:08;9.13;;;4.40;;
6840;SDS011;3458;53.678;14.080;2023-09-08T10:58:37;4.63;;;4.07;;
6840;SDS011;3458;53.678;14.080;2023-09-08T11:01:13;8.10;;;5.67;;
6840;SDS011;3458;53.678;14.080;2023-09-08T11:03:43;5.97;;;4.80;;
6840;SDS011;3458;53.678;14.080;2023-09-08T11:06:10;11.70;;;4.63;;
6840;SDS011;3458;53.678;14.080;2023-09-08T11:08:37;15.93;;;5.07;;
6840;SDS011;3458;53.678;14.080;2023-09-08T11:11:03;8.00;;;4.60;;
6840;SDS011;3458;53.678;14.080;2023-09-08T11:13:29;5.10;;;4.60;;
6840;SDS011;3458;53.678;14.080;2023-09-08T11:15:55;4.27;;;3.70;;
6840;SDS011;3458;53.678;14.080;2023-09-08T11:18:30;8.83;;;4.77;;
6840;SDS011;3458;53.678;14.080;2023-09-08T11:20:56;6.57;;;4.40;;
6840;SDS011;3458;53.678;14.080;2023-09-08T11:23:23;9.73;;;5.10;;
6840;SDS011;3458;53.678;14.080;2023-09-08T11:25:49;5.90;;;5.30;;
6840;SDS011;3458;53.678;14.080;2023-09-08T11:28:22;5.20;;;4.70;;
6840;SDS011;3458;53.678;14.080;2023-09-08T11:30:48;5.10;;;4.60;;
6840;SDS011;3458;53.678;14.080;2023-09-08T11:33:15;7.43;;;4.93;;
6840;SDS011;3458;53.678;14.080;2023-09-08T11:35:52;7.50;;;4.90;;
6840;SDS011;3458;53.678;14.080;2023-09-08T11:38:19;6.27;;;4.83;;
6840;SDS011;3458;53.678;14.080;2023-09-08T11:40:55;12.53;;;4.97;;
6840;SDS011;3458;53.678;14.080;2023-09-08T11:43:22;10.47;;;4.97;;
6840;SDS011;3458;53.678;14.080;2023-09-08T11:45:48;6.80;;;3.90;;
6840;SDS011;3458;53.678;14.080;2023-09-08T11:48:15;4.90;;;4.13;;
6840;SDS011;3458;53.678;14.080;2023-09-08T11:50:41;6.10;;;4.93;;
6840;SDS011;3458;53.678;14.080;2023-09-08T11:53:07;7.87;;;4.40;;
6840;SDS011;3458;53.678;14.080;2023-09-08T11:55:33;5.60;;;4.23;;
6840;SDS011;3458;53.678;14.080;2023-09-08T11:58:00;5.33;;;4.43;;
6840;SDS011;3458;53.678;14.080;2023-09-08T12:00:26;5.07;;;4.00;;
6840;SDS011;3458;53.678;14.080;2023-09-08T12:02:53;13.57;;;5.40;;
6840;SDS011;3458;53.678;14.080;2023-09-08T12:05:26;6.40;;;4.53;;
6840;SDS011;3458;53.678;14.080;2023-09-08T12:07:54;5.30;;;4.60;;
6840;SDS011;3458;53.678;14.080;2023-09-08T12:10:24;8.93;;;5.10;;
6840;SDS011;3458;53.678;14.080;2023-09-08T12:12:51;7.87;;;4.77;;
6840;SDS011;3458;53.678;14.080;2023-09-08T12:17:57;5.23;;;4.17;;
6840;SDS011;3458;53.678;14.080;2023-09-08T12:20:23;7.10;;;4.00;;
6840;SDS011;3458;53.678;14.080;2023-09-08T12:22:49;7.80;;;4.23;;
6840;SDS011;3458;53.678;14.080;2023-09-08T12:25:15;9.13;;;3.40;;
6840;SDS011;3458;53.678;14.080;2023-09-08T12:27:41;6.20;;;3.87;;
6840;SDS011;3458;53.678;14.080;2023-09-08T12:30:08;5.60;;;3.90;;
6840;SDS011;3458;53.678;14.080;2023-09-08T12:32:34;9.90;;;4.00;;
6840;SDS011;3458;53.678;14.080;2023-09-08T12:35:01;6.43;;;4.40;;
6840;SDS011;3458;53.678;14.080;2023-09-08T12:37:28;5.03;;;3.70;;
6840;SDS011;3458;53.678;14.080;2023-09-08T12:39:55;7.50;;;3.90;;
6840;SDS011;3458;53.678;14.080;2023-09-08T12:42:21;5.07;;;3.80;;
6840;SDS011;3458;53.678;14.080;2023-09-08T12:44:50;4.60;;;3.90;;
6840;SDS011;3458;53.678;14.080;2023-09-08T12:47:16;5.50;;;4.10;;
6840;SDS011;3458;53.678;14.080;2023-09-08T12:49:42;5.00;;;3.83;;
6840;SDS011;3458;53.678;14.080;2023-09-08T12:52:07;4.80;;;3.80;;
6840;SDS011;3458;53.678;14.080;2023-09-08T12:54:34;6.40;;;4.20;;
6840;SDS011;3458;53.678;14.080;2023-09-08T12:57:00;5.57;;;4.00;;
6840;SDS011;3458;53.678;14.080;2023-09-08T12:59:26;5.17;;;4.00;;
6840;SDS011;3458;53.678;14.080;2023-09-08T13:01:51;5.73;;;4.20;;
6840;SDS011;3458;53.678;14.080;2023-09-08T13:04:18;4.70;;;4.30;;
6840;SDS011;3458;53.678;14.080;2023-09-08T13:06:44;7.50;;;6.00;;
6840;SDS011;3458;53.678;14.080;2023-09-08T13:09:10;6.70;;;3.63;;
6840;SDS011;3458;53.678;14.080;2023-09-08T13:11:36;5.47;;;4.20;;
6840;SDS011;3458;53.678;14.080;2023-09-08T13:14:01;6.43;;;4.30;;
6840;SDS011;3458;53.678;14.080;2023-09-08T13:16:27;5.43;;;4.10;;
6840;SDS011;3458;53.678;14.080;2023-09-08T13:18:52;5.50;;;4.43;;
6840;SDS011;3458;53.678;14.080;2023-09-08T13:21:18;7.90;;;4.07;;
6840;SDS011;3458;53.678;14.080;2023-09-08T13:23:43;5.90;;;3.90;;
6840;SDS011;3458;53.678;14.080;2023-09-08T13:26:09;7.60;;;4.13;;
6840;SDS011;3458;53.678;14.080;2023-09-08T13:28:34;5.67;;;4.67;;
6840;SDS011;3458;53.678;14.080;2023-09-08T13:31:00;5.83;;;3.70;;
6840;SDS011;3458;53.678;14.080;2023-09-08T13:33:26;9.10;;;4.73;;
6840;SDS011;3458;53.678;14.080;2023-09-08T13:35:52;5.30;;;4.13;;
6840;SDS011;3458;53.678;14.080;2023-09-08T13:38:17;6.80;;;3.57;;
6840;SDS011;3458;53.678;14.080;2023-09-08T13:40:43;7.23;;;4.73;;
6840;SDS011;3458;53.678;14.080;2023-09-08T13:43:08;5.13;;;4.03;;
6840;SDS011;3458;53.678;14.080;2023-09-08T13:45:36;5.07;;;4.57;;
6840;SDS011;3458;53.678;14.080;2023-09-08T13:48:02;4.27;;;3.87;;
6840;SDS011;3458;53.678;14.080;2023-09-08T13:50:29;5.70;;;4.73;;
6840;SDS011;3458;53.678;14.080;2023-09-08T13:52:54;4.17;;;3.77;;
6840;SDS011;3458;53.678;14.080;2023-09-08T13:55:20;6.00;;;4.10;;
6840;SDS011;3458;53.678;14.080;2023-09-08T13:57:48;6.33;;;3.97;;
6840;SDS011;3458;53.678;14.080;2023-09-08T14:00:17;6.03;;;4.10;;
6840;SDS011;3458;53.678;14.080;2023-09-08T14:02:43;7.23;;;5.80;;
6840;SDS011;3458;53.678;14.080;2023-09-08T14:05:09;5.63;;;4.00;;
6840;SDS011;3458;53.678;14.080;2023-09-08T14:07:35;4.57;;;3.93;;
6840;SDS011;3458;53.678;14.080;2023-09-08T14:10:00;5.73;;;4.10;;
6840;SDS011;3458;53.678;14.080;2023-09-08T14:12:26;5.73;;;4.23;;
6840;SDS011;3458;53.678;14.080;2023-09-08T14:14:52;15.00;;;4.63;;
6840;SDS011;3458;53.678;14.080;2023-09-08T14:17:17;5.10;;;4.13;;
6840;SDS011;3458;53.678;14.080;2023-09-08T14:19:43;5.93;;;3.80;;
6840;SDS011;3458;53.678;14.080;2023-09-08T14:22:08;4.23;;;3.80;;
6840;SDS011;3458;53.678;14.080;2023-09-08T14:24:34;6.60;;;4.27;;
6840;SDS011;3458;53.678;14.080;2023-09-08T14:26:59;5.73;;;4.17;;
6840;SDS011;3458;53.678;14.080;2023-09-08T14:29:25;7.40;;;4.20;;
6840;SDS011;3458;53.678;14.080;2023-09-08T14:31:50;4.47;;;3.80;;
6840;SDS011;3458;53.678;14.080;2023-09-08T14:34:16;4.40;;;4.00;;
6840;SDS011;3458;53.678;14.080;2023-09-08T14:36:41;4.40;;;3.90;;
6840;SDS011;3458;53.678;14.080;2023-09-08T14:39:07;6.53;;;3.83;;
6840;SDS011;3458;53.678;14.080;2023-09-08T14:41:32;4.83;;;3.27;;
6840;SDS011;3458;53.678;14.080;2023-09-08T14:43:58;6.00;;;4.17;;
6840;SDS011;3458;53.678;14.080;2023-09-08T14:46:23;4.40;;;4.10;;
6840;SDS011;3458;53.678;14.080;2023-09-08T14:48:49;4.07;;;3.57;;
6840;SDS011;3458;53.678;14.080;2023-09-08T14:51:14;4.90;;;3.90;;
6840;SDS011;3458;53.678;14.080;2023-09-08T14:53:40;3.30;;;3.00;;
6840;SDS011;3458;53.678;14.080;2023-09-08T14:56:05;3.90;;;3.50;;